sensor_id;sensor_type;location;lat;lon;timestamp;pressure;altitude;pressure_sealevel;temperature;humidity
3096;BME280;1558;42.700;23.360;2022-10-31T00:01:27;95737.00;;;14.39;66.89
3096;BME280;1558;42.700;23.360;2022-10-31T00:03:56;95775.84;;;14.55;67.23
3096;BME280;1558;42.700;23.360;2022-10-31T00:06:25;95778.28;;;14.44;67.43
3096;BME280;1558;42.700;23.360;2022-10-31T00:08:54;95775.72;;;14.36;67.28
3096;BME280;1558;42.700;23.360;2022-10-31T00:11:22;95689.88;;;13.79;67.86
3096;BME280;1558;42.700;23.360;2022-10-31T00:13:50;95770.72;;;14.25;67.94
3096;BME280;1558;42.700;23.360;2022-10-31T00:16:20;95771.84;;;14.24;68.13
3096;BME280;1558;42.700;23.360;2022-10-31T00:18:48;95772.53;;;14.21;67.98
3096;BME280;1558;42.700;23.360;2022-10-31T00:21:18;95778.22;;;14.16;68.73
3096;BME280;1558;42.700;23.360;2022-10-31T00:23:46;95767.59;;;14.11;68.99
3096;BME280;1558;42.700;23.360;2022-10-31T00:26:14;95764.97;;;14.15;69.72
3096;BME280;1558;42.700;23.360;2022-10-31T00:28:42;95718.81;;;13.87;69.18
3096;BME280;1558;42.700;23.360;2022-10-31T00:31:12;95760.81;;;14.05;69.83
3096;BME280;1558;42.700;23.360;2022-10-31T00:33:40;95699.28;;;13.70;69.84
3096;BME280;1558;42.700;23.360;2022-10-31T00:36:12;95770.63;;;14.10;70.14
3096;BME280;1558;42.700;23.360;2022-10-31T00:38:42;95764.53;;;14.01;70.18
3096;BME280;1558;42.700;23.360;2022-10-31T00:41:11;95770.78;;;14.01;70.94
3096;BME280;1558;42.700;23.360;2022-10-31T00:43:39;95765.69;;;14.00;70.65
3096;BME280;1558;42.700;23.360;2022-10-31T00:46:07;95768.50;;;14.03;70.71
3096;BME280;1558;42.700;23.360;2022-10-31T00:48:34;95770.78;;;14.01;71.31
3096;BME280;1558;42.700;23.360;2022-10-31T00:51:02;95761.63;;;13.94;71.74
3096;BME280;1558;42.700;23.360;2022-10-31T00:53:30;95765.72;;;13.88;71.76
3096;BME280;1558;42.700;23.360;2022-10-31T00:55:59;95769.00;;;13.57;72.29
3096;BME280;1558;42.700;23.360;2022-10-31T00:58:27;95766.25;;;13.21;74.00
3096;BME280;1558;42.700;23.360;2022-10-31T01:00:55;95772.44;;;13.21;75.24
3096;BME280;1558;42.700;23.360;2022-10-31T01:03:24;95768.03;;;13.17;75.47
3096;BME280;1558;42.700;23.360;2022-10-31T01:05:57;95771.91;;;12.95;76.41
3096;BME280;1558;42.700;23.360;2022-10-31T01:08:26;95787.22;;;12.58;77.49
3096;BME280;1558;42.700;23.360;2022-10-31T01:11:05;95789.78;;;12.34;80.87
3096;BME280;1558;42.700;23.360;2022-10-31T01:13:34;95784.91;;;12.28;81.70
3096;BME280;1558;42.700;23.360;2022-10-31T01:16:04;95794.00;;;12.02;81.74
3096;BME280;1558;42.700;23.360;2022-10-31T01:18:33;95791.22;;;11.90;83.06
3096;BME280;1558;42.700;23.360;2022-10-31T01:21:03;95793.03;;;11.78;84.18
3096;BME280;1558;42.700;23.360;2022-10-31T01:23:32;95791.69;;;11.54;84.83
3096;BME280;1558;42.700;23.360;2022-10-31T01:26:04;95790.56;;;11.55;86.31
3096;BME280;1558;42.700;23.360;2022-10-31T01:28:33;95795.84;;;11.43;87.08
3096;BME280;1558;42.700;23.360;2022-10-31T01:31:03;95794.22;;;11.22;89.44
3096;BME280;1558;42.700;23.360;2022-10-31T01:33:31;95806.31;;;11.07;91.32
3096;BME280;1558;42.700;23.360;2022-10-31T01:36:00;95797.09;;;11.08;91.95
3096;BME280;1558;42.700;23.360;2022-10-31T01:38:27;95789.34;;;11.07;92.83
3096;BME280;1558;42.700;23.360;2022-10-31T01:40:55;95798.06;;;11.12;92.85
3096;BME280;1558;42.700;23.360;2022-10-31T01:43:41;95793.75;;;11.11;93.49
3096;BME280;1558;42.700;23.360;2022-10-31T01:46:10;95796.78;;;11.10;93.85
3096;BME280;1558;42.700;23.360;2022-10-31T01:48:39;95805.03;;;11.13;94.10
3096;BME280;1558;42.700;23.360;2022-10-31T01:51:12;95797.75;;;11.05;94.28
3096;BME280;1558;42.700;23.360;2022-10-31T01:53:42;95802.38;;;11.05;95.89
3096;BME280;1558;42.700;23.360;2022-10-31T01:56:11;95800.56;;;11.17;96.35
3096;BME280;1558;42.700;23.360;2022-10-31T01:58:42;95795.47;;;11.24;96.17
3096;BME280;1558;42.700;23.360;2022-10-31T02:01:10;95789.13;;;11.20;95.04
3096;BME280;1558;42.700;23.360;2022-10-31T02:03:39;95788.72;;;11.47;96.98
3096;BME280;1558;42.700;23.360;2022-10-31T02:06:15;95787.53;;;11.95;96.70
3096;BME280;1558;42.700;23.360;2022-10-31T02:08:45;95784.03;;;12.15;95.26
3096;BME280;1558;42.700;23.360;2022-10-31T02:11:14;95784.53;;;12.17;92.79
3096;BME280;1558;42.700;23.360;2022-10-31T02:13:44;95790.84;;;12.21;91.16
3096;BME280;1558;42.700;23.360;2022-10-31T02:16:12;95798.75;;;12.05;89.94
3096;BME280;1558;42.700;23.360;2022-10-31T02:18:40;95796.63;;;11.90;90.50
3096;BME280;1558;42.700;23.360;2022-10-31T02:21:15;95800.03;;;11.79;91.28
3096;BME280;1558;42.700;23.360;2022-10-31T02:24:06;95799.53;;;11.77;91.57
3096;BME280;1558;42.700;23.360;2022-10-31T02:29:57;95802.78;;;11.62;92.51
3096;BME280;1558;42.700;23.360;2022-10-31T02:32:41;95810.91;;;11.62;92.66
3096;BME280;1558;42.700;23.360;2022-10-31T02:35:17;95807.06;;;11.63;92.65
3096;BME280;1558;42.700;23.360;2022-10-31T02:37:53;95818.88;;;11.49;93.88
3096;BME280;1558;42.700;23.360;2022-10-31T02:40:26;95817.00;;;11.41;94.79
3096;BME280;1558;42.700;23.360;2022-10-31T02:43:02;95822.91;;;11.35;95.93
3096;BME280;1558;42.700;23.360;2022-10-31T02:45:37;95824.50;;;11.36;96.58
3096;BME280;1558;42.700;23.360;2022-10-31T02:48:13;95820.97;;;11.44;96.90
3096;BME280;1558;42.700;23.360;2022-10-31T02:50:47;95824.34;;;11.32;97.07
3096;BME280;1558;42.700;23.360;2022-10-31T02:53:17;95818.97;;;11.24;98.44
3096;BME280;1558;42.700;23.360;2022-10-31T02:55:57;95817.72;;;11.21;98.65
3096;BME280;1558;42.700;23.360;2022-10-31T02:58:29;95821.53;;;11.20;98.59
3096;BME280;1558;42.700;23.360;2022-10-31T03:01:17;95824.06;;;11.25;98.73
3096;BME280;1558;42.700;23.360;2022-10-31T03:04:06;95832.13;;;11.34;98.87
3096;BME280;1558;42.700;23.360;2022-10-31T03:06:41;95825.78;;;11.38;98.47
3096;BME280;1558;42.700;23.360;2022-10-31T03:09:20;95823.81;;;11.47;98.06
3096;BME280;1558;42.700;23.360;2022-10-31T03:11:54;95793.25;;;11.26;97.48
3096;BME280;1558;42.700;23.360;2022-10-31T03:14:32;95834.94;;;11.54;97.22
3096;BME280;1558;42.700;23.360;2022-10-31T03:17:08;95835.09;;;11.49;97.85
3096;BME280;1558;42.700;23.360;2022-10-31T03:19:41;95824.91;;;11.55;97.61
3096;BME280;1558;42.700;23.360;2022-10-31T03:22:16;95835.19;;;11.70;97.38
3096;BME280;1558;42.700;23.360;2022-10-31T03:24:46;95836.94;;;11.66;96.73
3096;BME280;1558;42.700;23.360;2022-10-31T03:27:19;95833.16;;;11.58;97.27
3096;BME280;1558;42.700;23.360;2022-10-31T03:29:50;95832.41;;;11.49;97.67
3096;BME280;1558;42.700;23.360;2022-10-31T03:32:22;95834.94;;;11.46;98.26
3096;BME280;1558;42.700;23.360;2022-10-31T03:34:56;95832.59;;;11.36;98.79
3096;BME280;1558;42.700;23.360;2022-10-31T03:37:27;95841.47;;;11.36;99.33
3096;BME280;1558;42.700;23.360;2022-10-31T03:39:57;95848.19;;;11.30;99.85
3096;BME280;1558;42.700;23.360;2022-10-31T03:42:29;95843.41;;;11.27;100.00
3096;BME280;1558;42.700;23.360;2022-10-31T03:45:01;95838.81;;;11.28;100.00
3096;BME280;1558;42.700;23.360;2022-10-31T03:47:32;95845.47;;;11.30;100.00
3096;BME280;1558;42.700;23.360;2022-10-31T03:50:02;95847.09;;;11.31;100.00
3096;BME280;1558;42.700;23.360;2022-10-31T03:52:35;95852.94;;;11.25;100.00
3096;BME280;1558;42.700;23.360;2022-10-31T03:55:08;95840.13;;;11.22;100.00
3096;BME280;1558;42.700;23.360;2022-10-31T03:57:41;95851.69;;;11.31;100.00
3096;BME280;1558;42.700;23.360;2022-10-31T04:00:13;95852.94;;;11.33;100.00
3096;BME280;1558;42.700;23.360;2022-10-31T04:02:45;95856.13;;;11.35;100.00
3096;BME280;1558;42.700;23.360;2022-10-31T04:05:19;95808.88;;;10.95;100.00
3096;BME280;1558;42.700;23.360;2022-10-31T04:07:51;95863.59;;;11.38;100.00
3096;BME280;1558;42.700;23.360;2022-10-31T04:10:22;95860.56;;;11.40;99.99
3096;BME280;1558;42.700;23.360;2022-10-31T04:13:01;95864.06;;;11.40;100.00
3096;BME280;1558;42.700;23.360;2022-10-31T04:15:32;95867.69;;;11.44;100.00
3096;BME280;1558;42.700;23.360;2022-10-31T04:18:01;95821.06;;;11.18;99.59
3096;BME280;1558;42.700;23.360;2022-10-31T04:20:34;95863.38;;;11.43;99.79
3096;BME280;1558;42.700;23.360;2022-10-31T04:23:03;95876.75;;;11.40;100.00
3096;BME280;1558;42.700;23.360;2022-10-31T04:25:36;95869.59;;;11.44;100.00
3096;BME280;1558;42.700;23.360;2022-10-31T04:28:04;95872.75;;;11.46;100.00
3096;BME280;1558;42.700;23.360;2022-10-31T04:30:32;95825.81;;;11.13;100.00
3096;BME280;1558;42.700;23.360;2022-10-31T04:33:00;95869.00;;;11.38;100.00
3096;BME280;1558;42.700;23.360;2022-10-31T04:35:28;95870.72;;;11.34;100.00
3096;BME280;1558;42.700;23.360;2022-10-31T04:37:57;95870.75;;;11.26;100.00
3096;BME280;1558;42.700;23.360;2022-10-31T04:40:25;95870.44;;;11.27;100.00
3096;BME280;1558;42.700;23.360;2022-10-31T04:42:53;95875.19;;;11.30;100.00
3096;BME280;1558;42.700;23.360;2022-10-31T04:45:21;95863.63;;;11.13;100.00
3096;BME280;1558;42.700;23.360;2022-10-31T04:47:49;95882.06;;;11.19;100.00
3096;BME280;1558;42.700;23.360;2022-10-31T04:50:17;95886.03;;;11.13;100.00
3096;BME280;1558;42.700;23.360;2022-10-31T04:52:46;95886.66;;;11.10;100.00
3096;BME280;1558;42.700;23.360;2022-10-31T04:55:15;95890.31;;;11.06;100.00
3096;BME280;1558;42.700;23.360;2022-10-31T04:57:45;95886.03;;;10.96;100.00
3096;BME280;1558;42.700;23.360;2022-10-31T05:00:15;95888.88;;;10.91;100.00
3096;BME280;1558;42.700;23.360;2022-10-31T05:02:44;95891.13;;;10.89;100.00
3096;BME280;1558;42.700;23.360;2022-10-31T05:05:13;95884.16;;;10.88;100.00
3096;BME280;1558;42.700;23.360;2022-10-31T05:07:42;95888.56;;;10.84;100.00
3096;BME280;1558;42.700;23.360;2022-10-31T05:10:12;95887.63;;;10.80;100.00
3096;BME280;1558;42.700;23.360;2022-10-31T05:12:46;95893.50;;;10.73;100.00
3096;BME280;1558;42.700;23.360;2022-10-31T05:15:16;95900.34;;;11.05;100.00
3096;BME280;1558;42.700;23.360;2022-10-31T05:17:44;95903.13;;;11.34;100.00
3096;BME280;1558;42.700;23.360;2022-10-31T05:20:13;95848.22;;;11.13;100.00
3096;BME280;1558;42.700;23.360;2022-10-31T05:22:45;95897.06;;;11.54;100.00
3096;BME280;1558;42.700;23.360;2022-10-31T05:25:13;95915.97;;;11.46;100.00
3096;BME280;1558;42.700;23.360;2022-10-31T05:27:43;95872.84;;;11.12;100.00
3096;BME280;1558;42.700;23.360;2022-10-31T05:30:15;95920.78;;;11.32;100.00
3096;BME280;1558;42.700;23.360;2022-10-31T05:32:45;95917.09;;;11.36;100.00
3096;BME280;1558;42.700;23.360;2022-10-31T05:35:14;95921.56;;;11.32;100.00
3096;BME280;1558;42.700;23.360;2022-10-31T05:37:43;95853.38;;;10.72;100.00
3096;BME280;1558;42.700;23.360;2022-10-31T05:40:13;95921.44;;;11.12;100.00
3096;BME280;1558;42.700;23.360;2022-10-31T05:42:42;95928.13;;;11.14;100.00
3096;BME280;1558;42.700;23.360;2022-10-31T05:45:14;95927.97;;;11.19;100.00
3096;BME280;1558;42.700;23.360;2022-10-31T05:47:49;95926.78;;;11.72;100.00
3096;BME280;1558;42.700;23.360;2022-10-31T05:50:17;95929.91;;;12.49;100.00
3096;BME280;1558;42.700;23.360;2022-10-31T05:52:45;95915.47;;;12.86;96.25
3096;BME280;1558;42.700;23.360;2022-10-31T05:55:13;95928.25;;;13.07;92.87
3096;BME280;1558;42.700;23.360;2022-10-31T05:57:41;95926.91;;;13.33;90.77
3096;BME280;1558;42.700;23.360;2022-10-31T06:00:09;95933.84;;;13.43;89.45
3096;BME280;1558;42.700;23.360;2022-10-31T06:02:38;95942.22;;;13.62;87.42
3096;BME280;1558;42.700;23.360;2022-10-31T06:05:07;95943.22;;;13.90;84.33
3096;BME280;1558;42.700;23.360;2022-10-31T06:07:35;95948.41;;;13.95;83.57
3096;BME280;1558;42.700;23.360;2022-10-31T06:10:06;95938.31;;;14.29;83.42
3096;BME280;1558;42.700;23.360;2022-10-31T06:12:35;95948.94;;;14.46;81.27
3096;BME280;1558;42.700;23.360;2022-10-31T06:15:05;95945.59;;;15.01;79.70
3096;BME280;1558;42.700;23.360;2022-10-31T06:17:33;95951.78;;;15.13;77.28
3096;BME280;1558;42.700;23.360;2022-10-31T06:20:03;95756.56;;;13.68;76.29
3096;BME280;1558;42.700;23.360;2022-10-31T06:22:32;95963.88;;;15.28;75.53
3096;BME280;1558;42.700;23.360;2022-10-31T06:25:00;95957.31;;;15.17;75.40
3096;BME280;1558;42.700;23.360;2022-10-31T06:27:28;95969.50;;;15.35;74.63
3096;BME280;1558;42.700;23.360;2022-10-31T06:29:56;95961.94;;;15.68;74.04
3096;BME280;1558;42.700;23.360;2022-10-31T06:32:23;95969.25;;;15.95;72.72
3096;BME280;1558;42.700;23.360;2022-10-31T06:34:51;95946.38;;;16.12;71.50
3096;BME280;1558;42.700;23.360;2022-10-31T06:37:21;95970.63;;;16.33;70.38
3096;BME280;1558;42.700;23.360;2022-10-31T06:39:49;95970.88;;;16.43;70.55
3096;BME280;1558;42.700;23.360;2022-10-31T06:42:17;95975.69;;;16.81;69.00
3096;BME280;1558;42.700;23.360;2022-10-31T06:44:45;95974.72;;;16.89;67.33
3096;BME280;1558;42.700;23.360;2022-10-31T06:47:12;95973.50;;;16.86;67.90
3096;BME280;1558;42.700;23.360;2022-10-31T06:49:40;95960.22;;;17.20;66.80
3096;BME280;1558;42.700;23.360;2022-10-31T06:52:08;95974.28;;;17.76;66.10
3096;BME280;1558;42.700;23.360;2022-10-31T06:54:37;95979.34;;;17.96;65.00
3096;BME280;1558;42.700;23.360;2022-10-31T06:57:05;95979.78;;;17.98;63.33
3096;BME280;1558;42.700;23.360;2022-10-31T06:59:33;95845.00;;;16.84;63.51
3096;BME280;1558;42.700;23.360;2022-10-31T07:02:01;95987.06;;;17.72;63.83
3096;BME280;1558;42.700;23.360;2022-10-31T07:04:29;95979.00;;;17.59;64.03
3096;BME280;1558;42.700;23.360;2022-10-31T07:06:57;95975.94;;;17.61;64.01
3096;BME280;1558;42.700;23.360;2022-10-31T07:09:24;95979.09;;;17.63;64.23
3096;BME280;1558;42.700;23.360;2022-10-31T07:11:54;95964.63;;;18.01;63.35
3096;BME280;1558;42.700;23.360;2022-10-31T07:14:22;95982.41;;;18.14;62.41
3096;BME280;1558;42.700;23.360;2022-10-31T07:16:50;95983.06;;;18.07;63.38
3096;BME280;1558;42.700;23.360;2022-10-31T07:19:18;95977.88;;;18.67;62.44
3096;BME280;1558;42.700;23.360;2022-10-31T07:21:46;95970.78;;;18.40;61.70
3096;BME280;1558;42.700;23.360;2022-10-31T07:24:14;95957.59;;;18.22;62.20
3096;BME280;1558;42.700;23.360;2022-10-31T07:26:41;95955.69;;;18.46;62.54
3096;BME280;1558;42.700;23.360;2022-10-31T07:29:13;95952.78;;;18.84;61.56
3096;BME280;1558;42.700;23.360;2022-10-31T07:31:41;95952.38;;;18.85;61.36
3096;BME280;1558;42.700;23.360;2022-10-31T07:34:10;95961.38;;;19.12;60.83
3096;BME280;1558;42.700;23.360;2022-10-31T07:36:38;95950.13;;;19.17;59.97
3096;BME280;1558;42.700;23.360;2022-10-31T07:39:06;95951.91;;;19.62;59.88
3096;BME280;1558;42.700;23.360;2022-10-31T07:41:34;95854.16;;;19.00;59.08
3096;BME280;1558;42.700;23.360;2022-10-31T07:44:01;95945.59;;;19.58;58.63
3096;BME280;1558;42.700;23.360;2022-10-31T07:46:31;95944.72;;;19.50;59.09
3096;BME280;1558;42.700;23.360;2022-10-31T07:48:59;95947.88;;;19.52;59.47
3096;BME280;1558;42.700;23.360;2022-10-31T07:51:27;95952.44;;;19.41;58.10
3096;BME280;1558;42.700;23.360;2022-10-31T07:53:55;95923.44;;;18.81;59.37
3096;BME280;1558;42.700;23.360;2022-10-31T07:56:23;95958.94;;;19.04;60.15
3096;BME280;1558;42.700;23.360;2022-10-31T07:58:51;95949.72;;;19.45;59.74
3096;BME280;1558;42.700;23.360;2022-10-31T08:01:18;95954.63;;;19.62;59.09
3096;BME280;1558;42.700;23.360;2022-10-31T08:03:48;95904.81;;;19.49;58.13
3096;BME280;1558;42.700;23.360;2022-10-31T08:06:16;95962.19;;;20.09;57.99
3096;BME280;1558;42.700;23.360;2022-10-31T08:08:44;95959.53;;;20.56;56.91
3096;BME280;1558;42.700;23.360;2022-10-31T08:11:11;95955.84;;;20.85;56.61
3096;BME280;1558;42.700;23.360;2022-10-31T08:13:39;95949.28;;;20.93;55.71
3096;BME280;1558;42.700;23.360;2022-10-31T08:16:09;95957.47;;;20.90;55.37
3096;BME280;1558;42.700;23.360;2022-10-31T08:18:37;95956.69;;;20.42;56.13
3096;BME280;1558;42.700;23.360;2022-10-31T08:21:06;95952.19;;;20.23;57.04
3096;BME280;1558;42.700;23.360;2022-10-31T08:23:34;95951.31;;;20.56;57.03
3096;BME280;1558;42.700;23.360;2022-10-31T08:26:02;95933.13;;;20.85;56.22
3096;BME280;1558;42.700;23.360;2022-10-31T08:28:30;95958.41;;;21.12;55.53
3096;BME280;1558;42.700;23.360;2022-10-31T08:30:58;95940.06;;;21.23;55.39
3096;BME280;1558;42.700;23.360;2022-10-31T08:33:26;95942.22;;;21.68;54.83
3096;BME280;1558;42.700;23.360;2022-10-31T08:35:54;95884.94;;;21.56;53.65
3096;BME280;1558;42.700;23.360;2022-10-31T08:38:23;95947.47;;;22.01;53.23
3096;BME280;1558;42.700;23.360;2022-10-31T08:40:51;95953.72;;;21.95;52.91
3096;BME280;1558;42.700;23.360;2022-10-31T08:43:19;95946.38;;;22.45;52.64
3096;BME280;1558;42.700;23.360;2022-10-31T08:45:48;95831.59;;;21.61;52.23
3096;BME280;1558;42.700;23.360;2022-10-31T08:48:17;95938.88;;;22.27;52.48
3096;BME280;1558;42.700;23.360;2022-10-31T08:50:45;95945.97;;;22.43;52.04
3096;BME280;1558;42.700;23.360;2022-10-31T08:53:15;95954.25;;;22.53;51.66
3096;BME280;1558;42.700;23.360;2022-10-31T08:55:46;95837.47;;;21.66;51.89
3096;BME280;1558;42.700;23.360;2022-10-31T08:58:15;95941.25;;;22.40;52.45
3096;BME280;1558;42.700;23.360;2022-10-31T09:00:44;95948.41;;;22.72;51.45
3096;BME280;1558;42.700;23.360;2022-10-31T09:03:14;95905.50;;;22.22;51.31
3096;BME280;1558;42.700;23.360;2022-10-31T09:05:43;95945.22;;;22.60;51.65
3096;BME280;1558;42.700;23.360;2022-10-31T09:08:13;95945.63;;;22.86;50.58
3096;BME280;1558;42.700;23.360;2022-10-31T09:10:44;95944.41;;;22.38;51.54
3096;BME280;1558;42.700;23.360;2022-10-31T09:13:13;95939.72;;;22.95;51.18
3096;BME280;1558;42.700;23.360;2022-10-31T09:15:43;95927.84;;;23.23;50.40
3096;BME280;1558;42.700;23.360;2022-10-31T09:18:12;95931.34;;;23.55;49.67
3096;BME280;1558;42.700;23.360;2022-10-31T09:20:41;95942.00;;;23.28;49.65
3096;BME280;1558;42.700;23.360;2022-10-31T09:23:11;95926.94;;;23.68;49.91
3096;BME280;1558;42.700;23.360;2022-10-31T09:25:39;95928.91;;;23.75;49.35
3096;BME280;1558;42.700;23.360;2022-10-31T09:28:16;95930.13;;;23.63;48.82
3096;BME280;1558;42.700;23.360;2022-10-31T09:30:46;95914.38;;;23.67;49.41
3096;BME280;1558;42.700;23.360;2022-10-31T09:33:14;95914.66;;;23.87;48.53
3096;BME280;1558;42.700;23.360;2022-10-31T09:35:42;95926.00;;;24.03;47.93
3096;BME280;1558;42.700;23.360;2022-10-31T09:38:12;95921.19;;;24.21;48.09
3096;BME280;1558;42.700;23.360;2022-10-31T09:40:42;95927.41;;;24.36;47.23
3096;BME280;1558;42.700;23.360;2022-10-31T09:43:15;95828.75;;;23.99;47.75
3096;BME280;1558;42.700;23.360;2022-10-31T09:45:58;95901.38;;;24.88;46.54
3096;BME280;1558;42.700;23.360;2022-10-31T09:48:51;95917.38;;;25.04;46.13
3096;BME280;1558;42.700;23.360;2022-10-31T09:51:25;95918.59;;;25.03;46.51
3096;BME280;1558;42.700;23.360;2022-10-31T09:53:59;95923.47;;;24.84;45.29
3096;BME280;1558;42.700;23.360;2022-10-31T09:56:31;95910.06;;;24.35;46.96
3096;BME280;1558;42.700;23.360;2022-10-31T09:59:04;95928.72;;;24.68;46.88
3096;BME280;1558;42.700;23.360;2022-10-31T10:01:47;95912.78;;;24.94;46.24
3096;BME280;1558;42.700;23.360;2022-10-31T10:04:27;95911.94;;;24.97;46.25
3096;BME280;1558;42.700;23.360;2022-10-31T10:06:58;95902.91;;;24.93;46.08
3096;BME280;1558;42.700;23.360;2022-10-31T10:09:30;95899.78;;;24.91;45.23
3096;BME280;1558;42.700;23.360;2022-10-31T10:12:07;95898.69;;;24.77;45.72
3096;BME280;1558;42.700;23.360;2022-10-31T10:14:56;95882.16;;;25.52;44.83
3096;BME280;1558;42.700;23.360;2022-10-31T10:17:36;95865.06;;;25.27;44.44
3096;BME280;1558;42.700;23.360;2022-10-31T10:20:29;95894.56;;;25.71;43.72
3096;BME280;1558;42.700;23.360;2022-10-31T10:23:22;95885.13;;;25.68;43.23
3096;BME280;1558;42.700;23.360;2022-10-31T10:25:56;95875.38;;;25.57;43.69
3096;BME280;1558;42.700;23.360;2022-10-31T10:28:37;95871.66;;;25.70;44.38
3096;BME280;1558;42.700;23.360;2022-10-31T10:31:11;95873.78;;;26.19;42.74
3096;BME280;1558;42.700;23.360;2022-10-31T10:33:54;95873.34;;;26.21;42.39
3096;BME280;1558;42.700;23.360;2022-10-31T10:36:28;95861.69;;;26.33;42.53
3096;BME280;1558;42.700;23.360;2022-10-31T10:39:00;95867.19;;;26.60;41.78
3096;BME280;1558;42.700;23.360;2022-10-31T10:41:32;95857.13;;;26.46;41.66
3096;BME280;1558;42.700;23.360;2022-10-31T10:44:00;95863.53;;;26.43;41.58
3096;BME280;1558;42.700;23.360;2022-10-31T10:46:40;95861.06;;;25.95;42.08
3096;BME280;1558;42.700;23.360;2022-10-31T10:49:32;95813.75;;;26.40;41.32
3096;BME280;1558;42.700;23.360;2022-10-31T10:52:08;95847.84;;;26.83;41.15
3096;BME280;1558;42.700;23.360;2022-10-31T10:55:08;95857.00;;;26.53;40.11
3096;BME280;1558;42.700;23.360;2022-10-31T10:57:49;95854.47;;;26.39;40.71
3096;BME280;1558;42.700;23.360;2022-10-31T11:00:22;95846.47;;;26.45;40.51
3096;BME280;1558;42.700;23.360;2022-10-31T11:02:51;95847.53;;;26.28;40.54
3096;BME280;1558;42.700;23.360;2022-10-31T11:05:28;95854.81;;;26.41;40.35
3096;BME280;1558;42.700;23.360;2022-10-31T11:07:57;95826.56;;;25.77;41.04
3096;BME280;1558;42.700;23.360;2022-10-31T11:10:25;95845.28;;;26.46;40.95
3096;BME280;1558;42.700;23.360;2022-10-31T11:13:14;95838.16;;;26.91;39.99
3096;BME280;1558;42.700;23.360;2022-10-31T11:15:53;95831.13;;;26.63;39.33
3096;BME280;1558;42.700;23.360;2022-10-31T11:18:26;95828.66;;;26.23;40.15
3096;BME280;1558;42.700;23.360;2022-10-31T11:20:56;95824.31;;;26.68;39.73
3096;BME280;1558;42.700;23.360;2022-10-31T11:23:26;95824.88;;;26.82;39.24
3096;BME280;1558;42.700;23.360;2022-10-31T11:25:56;95820.50;;;26.62;39.62
3096;BME280;1558;42.700;23.360;2022-10-31T11:28:25;95825.72;;;26.79;39.39
3096;BME280;1558;42.700;23.360;2022-10-31T11:30:56;95805.47;;;26.86;38.47
3096;BME280;1558;42.700;23.360;2022-10-31T11:33:30;95812.06;;;27.12;38.03
3096;BME280;1558;42.700;23.360;2022-10-31T11:36:00;95807.66;;;27.34;37.82
3096;BME280;1558;42.700;23.360;2022-10-31T11:38:33;95798.00;;;27.03;38.90
3096;BME280;1558;42.700;23.360;2022-10-31T11:41:09;95811.94;;;27.58;38.06
3096;BME280;1558;42.700;23.360;2022-10-31T11:43:39;95800.53;;;26.94;37.75
3096;BME280;1558;42.700;23.360;2022-10-31T11:46:17;95774.34;;;26.55;38.18
3096;BME280;1558;42.700;23.360;2022-10-31T11:48:50;95803.03;;;26.65;38.61
3096;BME280;1558;42.700;23.360;2022-10-31T11:51:21;95789.03;;;26.75;38.48
3096;BME280;1558;42.700;23.360;2022-10-31T11:53:51;95743.19;;;26.71;38.72
3096;BME280;1558;42.700;23.360;2022-10-31T11:56:26;95783.84;;;26.77;38.31
3096;BME280;1558;42.700;23.360;2022-10-31T11:58:58;95796.28;;;26.66;38.68
3096;BME280;1558;42.700;23.360;2022-10-31T12:01:29;95766.09;;;26.52;38.95
3096;BME280;1558;42.700;23.360;2022-10-31T12:04:06;95785.03;;;26.07;39.34
3096;BME280;1558;42.700;23.360;2022-10-31T12:06:36;95770.44;;;26.30;39.28
3096;BME280;1558;42.700;23.360;2022-10-31T12:09:17;95769.75;;;26.68;39.23
3096;BME280;1558;42.700;23.360;2022-10-31T12:11:51;95732.19;;;26.48;38.28
3096;BME280;1558;42.700;23.360;2022-10-31T12:14:32;95773.22;;;26.53;38.73
3096;BME280;1558;42.700;23.360;2022-10-31T12:17:08;95769.72;;;26.49;38.59
3096;BME280;1558;42.700;23.360;2022-10-31T12:19:49;95780.41;;;26.47;38.37
3096;BME280;1558;42.700;23.360;2022-10-31T12:22:28;95750.94;;;26.60;38.97
3096;BME280;1558;42.700;23.360;2022-10-31T12:25:19;95774.56;;;26.64;38.15
3096;BME280;1558;42.700;23.360;2022-10-31T12:28:01;95769.03;;;26.64;38.42
3096;BME280;1558;42.700;23.360;2022-10-31T12:30:45;95781.09;;;26.97;38.07
3096;BME280;1558;42.700;23.360;2022-10-31T12:33:29;95761.75;;;26.74;37.97
3096;BME280;1558;42.700;23.360;2022-10-31T12:36:29;95769.59;;;26.79;37.85
3096;BME280;1558;42.700;23.360;2022-10-31T12:39:13;95771.06;;;26.60;38.51
3096;BME280;1558;42.700;23.360;2022-10-31T12:41:52;95770.75;;;26.35;38.90
3096;BME280;1558;42.700;23.360;2022-10-31T12:44:42;95770.44;;;26.30;38.75
3096;BME280;1558;42.700;23.360;2022-10-31T12:47:29;95732.16;;;26.01;38.99
3096;BME280;1558;42.700;23.360;2022-10-31T12:50:16;95769.78;;;26.22;38.92
3096;BME280;1558;42.700;23.360;2022-10-31T12:53:00;95769.22;;;26.54;38.70
3096;BME280;1558;42.700;23.360;2022-10-31T12:55:40;95767.81;;;27.08;37.77
3096;BME280;1558;42.700;23.360;2022-10-31T12:58:13;95725.28;;;26.79;38.04
3096;BME280;1558;42.700;23.360;2022-10-31T13:00:44;95770.00;;;26.77;38.31
3096;BME280;1558;42.700;23.360;2022-10-31T13:03:24;95769.69;;;26.72;38.08
3096;BME280;1558;42.700;23.360;2022-10-31T13:05:55;95764.16;;;26.72;38.09
3096;BME280;1558;42.700;23.360;2022-10-31T13:08:29;95769.56;;;26.36;38.14
3096;BME280;1558;42.700;23.360;2022-10-31T13:11:05;95768.16;;;26.25;38.57
3096;BME280;1558;42.700;23.360;2022-10-31T13:13:37;95762.13;;;26.53;38.19
3096;BME280;1558;42.700;23.360;2022-10-31T13:16:11;95770.63;;;26.42;38.40
3096;BME280;1558;42.700;23.360;2022-10-31T13:18:44;95767.53;;;26.37;38.76
3096;BME280;1558;42.700;23.360;2022-10-31T13:21:18;95771.59;;;26.55;38.64
3096;BME280;1558;42.700;23.360;2022-10-31T13:23:50;95769.69;;;26.29;38.74
3096;BME280;1558;42.700;23.360;2022-10-31T13:26:26;95769.84;;;26.18;38.62
3096;BME280;1558;42.700;23.360;2022-10-31T13:29:03;95776.28;;;26.08;38.78
3096;BME280;1558;42.700;23.360;2022-10-31T13:31:33;95770.53;;;25.99;38.70
3096;BME280;1558;42.700;23.360;2022-10-31T13:34:04;95769.81;;;25.95;39.00
3096;BME280;1558;42.700;23.360;2022-10-31T13:36:39;95772.56;;;25.95;38.81
3096;BME280;1558;42.700;23.360;2022-10-31T13:39:20;95768.22;;;25.94;39.26